Time;durP1;ratioP1;P1;durP2;ratioP2;P2;SDS_P1;SDS_P2;PMS_P1;PMS_P2;Temp;Humidity;BMP_temperature;BMP_pressure;BME280_temperature;BME280_humidity;BME280_pressure;Samples;Min_cycle;Max_cycle;Signal;HPM_P1;HPM_P2
2023/06/23 00:00:59;;;;;;;3.90;3.60;;;24.20;86.40;;;;;;4991777;28;20294;-72
2023/06/23 00:03:27;;;;;;;4.30;3.90;;;24.10;86.40;;;;;;4992769;28;20310;-72
2023/06/23 00:05:55;;;;;;;4.07;3.70;;;24.10;86.40;;;;;;4996129;28;20199;-72
2023/06/23 00:08:22;;;;;;;3.50;3.20;;;24.10;86.70;;;;;;5001654;28;20200;-72
2023/06/23 00:10:50;;;;;;;3.13;2.83;;;24.10;86.10;;;;;;5010227;28;20234;-72
2023/06/23 00:13:19;;;;;;;3.30;3.00;;;24.10;85.70;;;;;;4991577;28;20679;-72
2023/06/23 00:15:47;;;;;;;3.40;3.10;;;24.10;85.80;;;;;;4994823;28;20589;-73
2023/06/23 00:18:15;;;;;;;4.53;3.00;;;24.10;85.70;;;;;;4995843;28;20229;-72
2023/06/23 00:20:43;;;;;;;3.03;2.70;;;24.10;85.30;;;;;;5006117;28;20200;-72
2023/06/23 00:23:10;;;;;;;2.70;2.50;;;24.20;84.40;;;;;;4996654;28;20226;-72
2023/06/23 00:25:37;;;;;;;2.73;2.47;;;24.20;84.30;;;;;;5007640;28;20639;-72
2023/06/23 00:28:09;;;;;;;3.00;2.40;;;24.30;83.50;;;;;;4998677;28;20574;-72
2023/06/23 00:30:36;;;;;;;2.60;2.17;;;24.50;82.90;;;;;;4991902;28;20246;-73
2023/06/23 00:33:07;;;;;;;4.20;2.93;;;24.60;80.40;;;;;;4992090;28;20200;-72
2023/06/23 00:35:34;;;;;;;2.70;2.50;;;24.60;78.80;;;;;;4992159;28;20210;-73
2023/06/23 00:38:00;;;;;;;3.37;3.03;;;24.70;78.80;;;;;;5005487;28;20207;-72
2023/06/23 00:40:28;;;;;;;3.40;3.00;;;24.70;77.70;;;;;;5011072;28;20203;-72
2023/06/23 00:42:58;;;;;;;3.30;3.00;;;24.80;77.00;;;;;;5010820;28;20234;-72
2023/06/23 00:45:24;;;;;;;3.83;3.00;;;24.80;76.20;;;;;;4996193;28;20221;-72
2023/06/23 00:47:57;;;;;;;3.93;2.80;;;24.70;76.20;;;;;;4992378;28;20207;-72
2023/06/23 00:50:26;;;;;;;3.33;3.00;;;24.60;75.80;;;;;;4994282;28;20234;-72
2023/06/23 00:52:56;;;;;;;3.67;3.00;;;24.40;76.20;;;;;;5003783;28;20242;-73
2023/06/23 00:55:25;;;;;;;4.23;3.33;;;24.30;77.40;;;;;;5005569;28;20209;-73
2023/06/23 00:57:57;;;;;;;4.03;3.70;;;23.90;78.20;;;;;;4994339;28;20801;-73
2023/06/23 01:00:27;;;;;;;4.47;3.40;;;23.60;80.00;;;;;;4996518;28;20341;-74
2023/06/23 01:02:59;;;;;;;4.13;3.27;;;23.50;81.20;;;;;;5002083;28;20243;-73
2023/06/23 01:05:35;;;;;;;4.23;3.83;;;23.20;82.00;;;;;;5009937;28;20211;-74
2023/06/23 01:08:13;;;;;;;4.00;3.57;;;23.10;83.30;;;;;;5006956;28;20246;-73
2023/06/23 01:10:46;;;;;;;4.10;3.70;;;22.80;83.90;;;;;;4990897;28;20227;-73
2023/06/23 01:13:24;;;;;;;4.00;3.60;;;22.70;84.90;;;;;;5000488;28;20199;-74
2023/06/23 01:16:00;;;;;;;4.33;3.93;;;22.70;85.10;;;;;;5003702;28;20200;-74
2023/06/23 01:18:44;;;;;;;4.40;4.00;;;22.60;86.70;;;;;;4991368;28;20239;-74
2023/06/23 01:21:19;;;;;;;3.97;3.60;;;22.50;85.90;;;;;;4989982;28;20231;-74
2023/06/23 01:24:11;;;;;;;4.90;4.40;;;22.60;86.70;;;;;;4990680;28;20199;-74
2023/06/23 01:27:23;;;;;;;4.50;4.10;;;22.50;86.50;;;;;;5010152;28;20195;-75
2023/06/23 01:29:53;;;;;;;4.87;4.40;;;22.50;87.20;;;;;;5011109;28;20215;-73
2023/06/23 01:32:35;;;;;;;4.33;3.83;;;22.30;87.10;;;;;;5004732;28;20243;-74
2023/06/23 01:35:13;;;;;;;4.83;4.37;;;22.20;87.60;;;;;;4991514;28;20191;-73
2023/06/23 01:37:52;;;;;;;4.93;4.10;;;22.20;87.60;;;;;;4991029;28;20235;-74
2023/06/23 01:40:24;;;;;;;5.00;4.50;;;22.30;88.00;;;;;;4991362;28;20243;-74
2023/06/23 01:42:57;;;;;;;4.77;4.37;;;22.40;87.70;;;;;;4991196;28;20295;-74
2023/06/23 01:45:27;;;;;;;6.23;4.27;;;22.50;88.30;;;;;;5021153;28;20230;-74
2023/06/23 01:48:02;;;;;;;4.97;4.43;;;22.60;87.50;;;;;;5030490;28;20655;-73
2023/06/23 01:50:39;;;;;;;5.53;4.63;;;22.70;86.80;;;;;;4996791;28;20537;-74
2023/06/23 01:53:08;;;;;;;5.40;4.73;;;22.70;86.60;;;;;;5006199;28;20195;-73
2023/06/23 01:55:39;;;;;;;5.23;4.70;;;22.80;86.70;;;;;;5010930;28;20203;-74
2023/06/23 01:58:17;;;;;;;4.90;4.40;;;22.70;86.50;;;;;;5001894;28;20223;-74
2023/06/23 02:00:53;;;;;;;5.07;4.57;;;22.80;86.30;;;;;;4995494;28;20192;-74
2023/06/23 02:03:28;;;;;;;5.70;5.03;;;22.80;86.80;;;;;;5006740;28;20249;-73
2023/06/23 02:06:00;;;;;;;6.10;5.50;;;22.90;86.80;;;;;;5009299;28;20557;-73
2023/06/23 02:08:29;;;;;;;6.13;5.53;;;22.90;86.30;;;;;;5005369;28;20210;-74
2023/06/23 02:11:01;;;;;;;5.90;5.20;;;22.80;86.20;;;;;;4981873;28;20234;-74
2023/06/23 02:13:29;;;;;;;6.30;5.70;;;22.90;86.30;;;;;;5010553;28;20746;-74
2023/06/23 02:16:00;;;;;;;6.83;6.20;;;22.90;86.20;;;;;;4994429;28;20200;-74
2023/06/23 02:18:28;;;;;;;7.10;6.30;;;22.80;86.20;;;;;;5011873;28;20215;-74
2023/06/23 02:21:00;;;;;;;8.60;6.53;;;22.70;86.30;;;;;;5001030;28;20383;-74
2023/06/23 02:23:27;;;;;;;6.93;5.53;;;22.70;86.50;;;;;;5013631;28;20226;-73
2023/06/23 02:25:54;;;;;;;7.33;6.63;;;22.80;86.40;;;;;;5014363;28;20210;-73
2023/06/23 02:28:22;;;;;;;6.83;6.17;;;22.80;86.30;;;;;;5013991;28;20222;-73
2023/06/23 02:30:51;;;;;;;7.23;6.53;;;22.80;86.50;;;;;;5013585;28;20265;-73
2023/06/23 02:33:22;;;;;;;6.93;6.33;;;22.90;86.40;;;;;;5011538;28;20222;-73
2023/06/23 02:35:50;;;;;;;6.40;5.80;;;22.90;86.60;;;;;;5002436;28;20211;-73
2023/06/23 02:38:26;;;;;;;6.33;5.73;;;22.90;86.30;;;;;;5004009;28;20223;-73
2023/06/23 02:40:54;;;;;;;6.27;5.67;;;22.90;86.30;;;;;;5013599;28;20712;-74
2023/06/23 02:43:31;;;;;;;6.67;5.40;;;22.90;86.30;;;;;;4993592;28;20209;-73
2023/06/23 02:46:04;;;;;;;6.00;5.40;;;22.90;86.30;;;;;;4994307;28;20203;-73
2023/06/23 02:48:40;;;;;;;6.53;5.93;;;22.90;86.30;;;;;;4994325;28;20203;-73
2023/06/23 02:51:09;;;;;;;6.40;5.80;;;23.00;86.60;;;;;;5000683;28;20678;-74
2023/06/23 02:53:47;;;;;;;6.17;5.57;;;23.00;86.20;;;;;;5009193;28;20199;-73
2023/06/23 02:56:19;;;;;;;6.47;5.70;;;22.90;86.10;;;;;;4996850;28;20200;-73
2023/06/23 02:58:48;;;;;;;8.40;6.17;;;22.80;87.00;;;;;;4968531;28;20211;-73
2023/06/23 03:01:16;;;;;;;6.10;5.50;;;22.90;86.40;;;;;;5011024;28;20211;-75
2023/06/23 03:03:46;;;;;;;6.70;6.03;;;22.80;86.20;;;;;;5005417;28;20224;-74
2023/06/23 03:06:21;;;;;;;7.37;6.60;;;22.80;86.70;;;;;;4994098;28;20234;-74
2023/06/23 03:08:48;;;;;;;6.70;6.00;;;22.80;86.80;;;;;;5008641;28;20205;-74
2023/06/23 03:11:17;;;;;;;8.37;6.77;;;22.80;86.60;;;;;;5002733;28;20274;-74
2023/06/23 03:13:45;;;;;;;7.37;6.17;;;22.70;86.60;;;;;;4994170;28;20224;-74
2023/06/23 03:16:19;;;;;;;8.20;7.17;;;22.80;86.90;;;;;;5012657;28;20286;-74
2023/06/23 03:19:00;;;;;;;7.83;6.80;;;22.80;87.20;;;;;;5002402;28;20224;-74
2023/06/23 03:21:30;;;;;;;9.80;7.13;;;22.80;87.30;;;;;;5007650;28;20234;-74
2023/06/23 03:24:01;;;;;;;7.73;6.93;;;22.80;87.50;;;;;;5005434;28;20195;-73
2023/06/23 03:26:31;;;;;;;7.70;6.90;;;22.70;87.30;;;;;;5010327;28;20215;-74
2023/06/23 03:29:03;;;;;;;10.20;7.97;;;22.70;87.60;;;;;;4993698;28;20195;-75
2023/06/23 03:31:30;;;;;;;7.93;7.23;;;22.70;87.90;;;;;;4998160;28;20314;-74
2023/06/23 03:34:00;;;;;;;10.20;8.30;;;22.60;88.20;;;;;;5004582;28;20216;-74
2023/06/23 03:36:36;;;;;;;11.10;8.30;;;22.60;88.30;;;;;;4992958;28;20234;-74
2023/06/23 03:39:09;;;;;;;9.93;8.83;;;22.60;88.50;;;;;;4992535;28;20191;-74
2023/06/23 03:41:36;;;;;;;10.77;9.17;;;22.50;88.90;;;;;;4994541;28;20565;-74
2023/06/23 03:44:13;;;;;;;11.40;10.30;;;22.40;89.00;;;;;;5003984;28;20298;-75
2023/06/23 03:46:53;;;;;;;11.23;10.13;;;22.30;89.50;;;;;;5010759;28;20219;-75
2023/06/23 03:49:30;;;;;;;11.97;10.13;;;22.20;90.20;;;;;;5010602;28;20195;-73
2023/06/23 03:52:03;;;;;;;11.60;10.40;;;22.30;90.00;;;;;;5011864;28;20215;-73
2023/06/23 03:54:32;;;;;;;14.47;10.93;;;22.20;90.00;;;;;;5011754;28;20223;-74
2023/06/23 03:57:03;;;;;;;12.87;11.67;;;22.20;90.00;;;;;;5006805;28;20489;-74
2023/06/23 03:59:31;;;;;;;13.00;11.73;;;22.30;90.10;;;;;;5009198;28;20208;-74
2023/06/23 04:01:59;;;;;;;14.30;12.53;;;22.20;90.20;;;;;;5007603;28;20223;-74
2023/06/23 04:04:30;;;;;;;14.27;12.77;;;22.10;90.40;;;;;;5002604;28;20202;-75
2023/06/23 04:06:59;;;;;;;15.13;13.57;;;22.10;90.40;;;;;;4993218;28;20216;-74
2023/06/23 04:09:30;;;;;;;15.93;14.43;;;22.10;90.40;;;;;;5007136;28;20733;-74
2023/06/23 04:11:58;;;;;;;16.57;14.97;;;22.10;90.50;;;;;;4995713;28;20710;-73
2023/06/23 04:14:26;;;;;;;16.93;15.33;;;22.00;90.40;;;;;;4999649;28;20528;-74
2023/06/23 04:16:58;;;;;;;18.43;16.63;;;22.10;90.50;;;;;;5007978;28;20222;-73
2023/06/23 04:19:30;;;;;;;19.17;17.13;;;22.20;90.30;;;;;;4991896;28;20786;-74
2023/06/23 04:22:04;;;;;;;18.80;17.00;;;22.10;90.20;;;;;;5002819;28;20549;-73
2023/06/23 04:24:32;;;;;;;19.80;17.87;;;22.20;90.30;;;;;;4997067;28;20207;-74
2023/06/23 04:27:04;;;;;;;20.50;18.40;;;22.30;90.10;;;;;;4996148;28;20199;-74
2023/06/23 04:29:32;;;;;;;20.27;18.27;;;22.30;90.10;;;;;;5011509;28;20707;-74
2023/06/23 04:32:02;;;;;;;21.93;19.60;;;22.30;89.70;;;;;;5006808;28;20234;-74
2023/06/23 04:34:31;;;;;;;20.20;18.03;;;22.50;90.20;;;;;;4996956;28;20196;-75
2023/06/23 04:37:06;;;;;;;22.23;20.03;;;22.50;89.40;;;;;;5007165;28;20662;-75
2023/06/23 04:39:44;;;;;;;22.53;20.33;;;22.50;89.30;;;;;;5012155;28;20269;-74
2023/06/23 04:42:17;;;;;;;23.60;21.17;;;22.50;89.10;;;;;;5011872;28;20544;-73
2023/06/23 04:44:52;;;;;;;23.67;21.17;;;22.50;89.20;;;;;;5007064;28;20230;-75
2023/06/23 04:47:26;;;;;;;25.07;22.47;;;22.40;89.20;;;;;;5000771;28;20677;-74
2023/06/23 04:50:02;;;;;;;24.20;21.77;;;22.30;89.10;;;;;;5011235;28;20202;-74
2023/06/23 04:52:31;;;;;;;26.07;23.47;;;22.30;89.50;;;;;;5010843;28;20303;-74
2023/06/23 04:55:03;;;;;;;26.20;23.53;;;22.30;89.70;;;;;;5010682;28;20207;-74
2023/06/23 04:57:38;;;;;;;25.40;22.70;;;22.30;89.10;;;;;;4993440;28;20212;-74
2023/06/23 05:00:09;;;;;;;25.70;23.00;;;22.30;89.40;;;;;;5009316;28;20211;-74
2023/06/23 05:02:43;;;;;;;27.93;24.93;;;22.50;88.90;;;;;;4991564;28;20223;-75
2023/06/23 05:05:17;;;;;;;27.00;24.20;;;22.60;88.80;;;;;;4999512;28;20823;-75
2023/06/23 05:07:45;;;;;;;28.20;25.27;;;22.60;88.00;;;;;;5008185;28;20191;-73
2023/06/23 05:10:19;;;;;;;28.37;25.40;;;22.50;87.70;;;;;;5005382;28;20361;-73
2023/06/23 05:12:51;;;;;;;27.63;24.80;;;22.70;88.00;;;;;;5017251;28;20233;-73
2023/06/23 05:15:19;;;;;;;28.97;25.37;;;22.70;87.80;;;;;;4999615;28;20204;-72
2023/06/23 05:17:51;;;;;;;28.03;25.17;;;22.70;87.70;;;;;;4991556;28;20721;-72
2023/06/23 05:20:22;;;;;;;28.90;26.00;;;22.80;88.40;;;;;;4994526;28;20249;-73
2023/06/23 05:22:55;;;;;;;28.83;25.63;;;22.80;87.30;;;;;;5001363;28;20211;-72
2023/06/23 05:25:29;;;;;;;29.23;26.10;;;22.90;86.40;;;;;;5012412;28;20199;-72
2023/06/23 05:28:00;;;;;;;31.43;25.87;;;22.70;86.80;;;;;;5005566;28;20226;-73
2023/06/23 05:30:28;;;;;;;29.27;26.27;;;22.80;86.80;;;;;;4991398;28;20236;-73
2023/06/23 05:32:57;;;;;;;28.03;25.13;;;22.90;86.80;;;;;;4981169;28;20227;-73
2023/06/23 05:35:33;;;;;;;30.87;27.60;;;22.90;86.30;;;;;;4994358;28;20224;-72
2023/06/23 05:38:02;;;;;;;29.80;26.70;;;22.90;85.70;;;;;;4996727;28;20199;-72
2023/06/23 05:40:31;;;;;;;30.23;27.03;;;22.90;85.80;;;;;;5006994;28;20293;-73
2023/06/23 05:42:59;;;;;;;32.07;28.00;;;22.90;85.70;;;;;;4999657;28;20310;-75
2023/06/23 05:45:29;;;;;;;30.13;27.03;;;22.70;85.90;;;;;;5005991;28;21158;-72
2023/06/23 05:48:03;;;;;;;31.67;28.37;;;22.70;86.10;;;;;;5001437;28;20309;-73
2023/06/23 05:50:34;;;;;;;26.23;22.47;;;22.70;86.30;;;;;;5010523;28;20196;-72
2023/06/23 05:53:07;;;;;;;29.20;26.20;;;22.70;86.60;;;;;;5005420;28;20215;-72
2023/06/23 05:55:40;;;;;;;29.47;24.23;;;22.80;86.20;;;;;;5010077;28;20210;-72
2023/06/23 05:58:10;;;;;;;28.63;25.80;;;22.90;86.20;;;;;;4998853;28;20199;-72
2023/06/23 06:00:45;;;;;;;27.13;24.23;;;23.00;85.30;;;;;;4989566;28;20217;-73
2023/06/23 06:03:20;;;;;;;29.73;26.30;;;23.00;85.50;;;;;;4988703;28;20725;-70
2023/06/23 06:05:54;;;;;;;28.70;25.67;;;23.00;85.10;;;;;;4990105;28;20206;-70
2023/06/23 06:08:27;;;;;;;28.83;25.93;;;23.10;85.10;;;;;;4993699;28;20188;-75
2023/06/23 06:10:55;;;;;;;27.97;24.87;;;23.10;85.10;;;;;;4990316;28;20251;-75
2023/06/23 06:13:28;;;;;;;28.70;25.03;;;23.10;84.90;;;;;;4990043;28;20238;-75
2023/06/23 06:15:57;;;;;;;28.13;24.93;;;23.00;84.40;;;;;;4991019;28;20188;-75
2023/06/23 06:18:28;;;;;;;24.37;21.73;;;23.10;84.50;;;;;;4991038;28;20219;-77
2023/06/23 06:21:04;;;;;;;25.03;22.33;;;23.30;84.70;;;;;;4974024;28;20206;-76
2023/06/23 06:23:32;;;;;;;27.43;23.80;;;23.30;82.50;;;;;;4992653;28;20219;-76
2023/06/23 06:26:07;;;;;;;25.47;21.90;;;23.40;82.60;;;;;;4974140;28;20571;-75
2023/06/23 06:28:39;;;;;;;23.40;20.90;;;23.50;82.50;;;;;;4991174;28;20198;-73
2023/06/23 06:31:08;;;;;;;24.33;21.90;;;23.70;81.40;;;;;;4976189;28;20206;-74
2023/06/23 06:33:40;;;;;;;22.83;20.43;;;23.70;80.70;;;;;;4992930;28;20242;-76
2023/06/23 06:36:09;;;;;;;21.83;19.53;;;23.80;80.50;;;;;;4992187;28;20196;-76
2023/06/23 06:38:40;;;;;;;24.07;20.73;;;23.90;80.50;;;;;;4992314;28;20318;-76
2023/06/23 06:41:09;;;;;;;21.00;18.80;;;24.00;79.50;;;;;;4964046;28;20228;-78
2023/06/23 06:43:42;;;;;;;20.57;18.57;;;24.10;79.80;;;;;;4997425;28;20199;-79
2023/06/23 06:46:11;;;;;;;23.07;18.33;;;24.20;78.90;;;;;;5013896;28;20207;-76
2023/06/23 06:48:40;;;;;;;20.20;18.20;;;24.10;78.20;;;;;;5020580;28;20219;-74
2023/06/23 06:51:09;;;;;;;20.33;18.20;;;24.10;77.40;;;;;;5035651;28;20229;-76
2023/06/23 06:53:42;;;;;;;19.03;17.03;;;24.10;78.00;;;;;;5031890;28;20226;-75
2023/06/23 06:56:09;;;;;;;20.23;18.23;;;24.20;76.80;;;;;;5028364;28;20195;-75
2023/06/23 06:58:40;;;;;;;17.67;15.87;;;24.10;76.10;;;;;;5020461;28;20212;-75
2023/06/23 07:01:08;;;;;;;17.70;15.77;;;24.20;76.80;;;;;;5022918;28;20219;-80
2023/06/23 07:03:39;;;;;;;15.83;14.23;;;24.40;76.20;;;;;;5015093;28;20227;-77
2023/06/23 07:06:14;;;;;;;15.13;13.63;;;24.50;75.00;;;;;;5015129;28;20207;-79
2023/06/23 07:08:42;;;;;;;16.03;14.33;;;24.50;75.00;;;;;;5013656;28;20946;-78
2023/06/23 07:11:13;;;;;;;15.10;13.47;;;24.60;74.50;;;;;;5012984;28;20695;-78
2023/06/23 07:13:39;;;;;;;16.20;14.50;;;24.70;74.20;;;;;;4997613;28;20222;-79
2023/06/23 07:16:06;;;;;;;15.87;14.27;;;24.70;73.20;;;;;;5015316;28;20675;-78
2023/06/23 07:18:36;;;;;;;14.17;12.77;;;24.60;72.50;;;;;;5014578;28;20215;-79
2023/06/23 07:21:04;;;;;;;15.23;13.57;;;24.70;73.50;;;;;;5014669;28;20210;-79
2023/06/23 07:23:35;;;;;;;15.73;14.07;;;24.80;73.10;;;;;;5015137;28;20199;-79
2023/06/23 07:26:02;;;;;;;12.03;10.83;;;24.80;71.90;;;;;;5015107;28;20238;-79
2023/06/23 07:28:28;;;;;;;16.60;14.83;;;24.90;73.10;;;;;;5008159;28;20227;-79
2023/06/23 07:31:01;;;;;;;12.73;11.53;;;24.90;71.50;;;;;;4995082;28;20191;-79
2023/06/23 07:33:28;;;;;;;15.67;14.07;;;24.90;72.60;;;;;;4995322;28;20228;-79
2023/06/23 07:35:55;;;;;;;16.43;14.70;;;24.90;71.10;;;;;;4977497;28;20235;-78
2023/06/23 07:38:24;;;;;;;13.70;12.30;;;24.90;70.70;;;;;;4994397;28;20220;-79
2023/06/23 07:40:52;;;;;;;13.73;12.33;;;25.00;71.40;;;;;;4994869;28;20218;-78
2023/06/23 07:43:20;;;;;;;12.40;11.30;;;25.00;71.80;;;;;;4997737;28;20222;-79
2023/06/23 07:45:50;;;;;;;12.50;11.30;;;25.20;71.30;;;;;;5013826;28;20211;-78
2023/06/23 07:48:16;;;;;;;13.53;12.17;;;25.20;70.70;;;;;;5014723;28;20207;-79
2023/06/23 07:50:49;;;;;;;12.17;10.87;;;25.20;69.80;;;;;;5012971;28;20266;-79
2023/06/23 07:53:16;;;;;;;12.77;11.13;;;25.20;70.00;;;;;;5014065;28;20210;-79
2023/06/23 07:55:43;;;;;;;11.57;10.33;;;25.20;69.10;;;;;;5013774;28;20210;-77
2023/06/23 07:58:14;;;;;;;9.03;8.23;;;25.10;69.30;;;;;;5013424;28;20330;-78
2023/06/23 08:00:41;;;;;;;10.30;9.30;;;25.20;70.40;;;;;;4997214;28;20198;-80
2023/06/23 08:03:12;;;;;;;10.40;9.40;;;25.20;67.70;;;;;;5013778;28;20219;-78
2023/06/23 08:05:38;;;;;;;9.17;8.10;;;25.30;68.30;;;;;;4987355;28;20231;-80
2023/06/23 08:08:06;;;;;;;10.50;8.77;;;25.50;69.30;;;;;;4995313;28;20211;-79
2023/06/23 08:10:36;;;;;;;11.97;9.53;;;25.80;68.10;;;;;;4994006;28;20218;-78
2023/06/23 08:13:02;;;;;;;11.33;10.23;;;25.80;67.50;;;;;;4994252;28;20232;-80
2023/06/23 08:15:31;;;;;;;10.87;9.77;;;25.80;67.30;;;;;;4996318;28;20225;-80
2023/06/23 08:17:59;;;;;;;11.73;10.27;;;25.80;66.80;;;;;;5012948;28;20681;-80
2023/06/23 08:20:26;;;;;;;10.77;9.70;;;25.90;65.50;;;;;;5012680;28;20231;-80
2023/06/23 08:22:53;;;;;;;10.10;9.10;;;25.80;65.80;;;;;;5014013;28;20233;-80
2023/06/23 08:25:27;;;;;;;8.90;7.80;;;25.90;66.20;;;;;;4996300;28;20215;-80
2023/06/23 08:27:54;;;;;;;9.97;8.87;;;26.10;67.60;;;;;;5012275;28;20295;-80
2023/06/23 08:30:28;;;;;;;10.97;8.90;;;26.30;65.60;;;;;;4993422;28;20208;-76
2023/06/23 08:32:59;;;;;;;8.97;8.07;;;26.30;63.80;;;;;;4993624;28;20224;-78
2023/06/23 08:35:27;;;;;;;7.43;6.60;;;26.30;63.90;;;;;;4994087;28;20303;-78
2023/06/23 08:37:54;;;;;;;7.80;7.10;;;26.40;63.50;;;;;;4992961;28;20312;-79
2023/06/23 08:40:23;;;;;;;8.80;8.00;;;26.60;64.60;;;;;;4976470;28;20215;-80
2023/06/23 08:42:52;;;;;;;9.27;8.47;;;26.60;62.80;;;;;;4994201;28;20200;-80
2023/06/23 08:45:27;;;;;;;8.83;7.93;;;26.60;63.20;;;;;;4993946;28;20204;-78
2023/06/23 08:48:01;;;;;;;9.47;8.03;;;26.70;63.70;;;;;;4993783;28;20227;-79
2023/06/23 08:50:28;;;;;;;8.83;8.00;;;26.70;63.40;;;;;;4977280;28;20732;-80
2023/06/23 08:52:58;;;;;;;9.87;7.83;;;26.60;62.70;;;;;;4993710;28;20588;-76
2023/06/23 08:55:25;;;;;;;8.47;7.27;;;26.60;62.90;;;;;;4994087;28;20236;-79
2023/06/23 08:57:52;;;;;;;7.30;5.97;;;26.70;61.70;;;;;;4994490;28;20210;-81
2023/06/23 09:00:26;;;;;;;7.50;6.77;;;26.80;62.80;;;;;;4993634;28;20264;-79
2023/06/23 09:02:53;;;;;;;7.10;6.40;;;27.00;60.90;;;;;;4993382;28;20316;-80
2023/06/23 09:05:23;;;;;;;7.20;6.50;;;27.20;60.90;;;;;;4993387;28;20210;-79
2023/06/23 09:07:51;;;;;;;6.57;5.97;;;27.10;58.10;;;;;;4993391;28;20236;-77
2023/06/23 09:10:18;;;;;;;7.43;6.73;;;27.10;60.30;;;;;;4976758;28;20232;-78
2023/06/23 09:13:19;;;;;;;7.40;6.50;;;27.00;59.20;;;;;;4993580;28;20232;-81
2023/06/23 09:15:50;;;;;;;7.63;6.93;;;26.90;58.30;;;;;;4993583;28;20223;-78
2023/06/23 09:18:18;;;;;;;6.37;5.80;;;26.80;59.10;;;;;;4976445;28;20587;-79
2023/06/23 09:20:48;;;;;;;6.70;5.80;;;26.90;59.60;;;;;;4993528;28;20204;-80
2023/06/23 09:23:16;;;;;;;6.63;6.00;;;27.10;60.40;;;;;;4993530;28;20314;-79
2023/06/23 09:25:48;;;;;;;6.90;6.00;;;27.00;58.60;;;;;;4993705;28;20319;-79
2023/06/23 09:28:27;;;;;;;7.90;6.47;;;26.80;58.20;;;;;;4960560;28;20215;-81
2023/06/23 09:30:56;;;;;;;6.10;5.50;;;26.80;57.00;;;;;;4994461;28;20235;-82
2023/06/23 09:33:27;;;;;;;5.73;5.13;;;26.90;57.90;;;;;;4974850;28;20234;-81
2023/06/23 09:36:00;;;;;;;5.73;5.23;;;27.00;58.60;;;;;;4993100;28;20197;-81
2023/06/23 09:38:28;;;;;;;6.90;5.80;;;27.10;57.50;;;;;;5001976;28;20327;-80
2023/06/23 09:41:14;;;;;;;5.40;5.00;;;27.00;57.20;;;;;;5012351;28;20234;-78
2023/06/23 09:43:42;;;;;;;5.57;4.90;;;27.10;57.10;;;;;;4995711;28;20193;-79
2023/06/23 09:46:17;;;;;;;5.20;4.70;;;27.40;58.60;;;;;;4997844;28;20221;-80
2023/06/23 09:48:51;;;;;;;5.33;4.90;;;27.60;58.00;;;;;;4992898;28;20283;-75
2023/06/23 09:51:20;;;;;;;6.97;5.40;;;27.60;57.00;;;;;;5008135;28;20693;-74
2023/06/23 09:53:50;;;;;;;6.60;5.23;;;27.70;57.70;;;;;;5010013;28;20592;-76
2023/06/23 09:56:18;;;;;;;5.40;4.90;;;27.80;57.20;;;;;;5012846;28;20209;-78
2023/06/23 09:58:50;;;;;;;5.27;4.77;;;27.90;57.50;;;;;;4994860;28;20230;-77
2023/06/23 10:01:18;;;;;;;5.70;5.07;;;28.00;56.50;;;;;;4994272;28;20285;-75
2023/06/23 10:03:49;;;;;;;5.67;5.07;;;28.10;54.70;;;;;;4991502;28;20229;-73
2023/06/23 10:06:25;;;;;;;4.90;4.50;;;27.80;53.80;;;;;;5001034;28;20198;-72
2023/06/23 10:08:56;;;;;;;5.10;4.60;;;27.80;54.10;;;;;;4975903;28;20211;-72
2023/06/23 10:11:33;;;;;;;4.73;4.33;;;28.00;55.00;;;;;;5010578;28;20237;-73
2023/06/23 10:14:05;;;;;;;5.27;4.57;;;28.20;55.50;;;;;;5001517;28;20217;-72
2023/06/23 10:16:32;;;;;;;5.23;4.70;;;28.30;54.00;;;;;;5014755;28;20298;-71
2023/06/23 10:18:59;;;;;;;4.73;4.27;;;28.20;53.80;;;;;;5001953;28;20546;-72
2023/06/23 10:21:29;;;;;;;5.30;4.77;;;28.10;53.60;;;;;;4995261;28;20217;-73
2023/06/23 10:24:02;;;;;;;4.43;4.03;;;27.90;53.50;;;;;;4994859;28;20229;-73
2023/06/23 10:26:31;;;;;;;4.97;4.47;;;28.00;54.40;;;;;;5012289;28;20244;-73
2023/06/23 10:28:59;;;;;;;4.63;4.07;;;28.10;55.50;;;;;;5034559;28;20238;-72
2023/06/23 10:31:30;;;;;;;4.83;3.93;;;28.40;55.50;;;;;;5012834;28;20317;-72
2023/06/23 10:34:12;;;;;;;5.93;3.80;;;28.60;53.90;;;;;;5010229;28;20218;-73
2023/06/23 10:36:47;;;;;;;4.30;3.90;;;28.60;49.70;;;;;;5014188;28;20562;-73
2023/06/23 10:39:15;;;;;;;4.40;4.00;;;28.50;51.00;;;;;;5013859;28;20197;-73
2023/06/23 10:41:46;;;;;;;4.20;3.70;;;28.50;51.00;;;;;;5010342;28;20195;-73
2023/06/23 10:44:13;;;;;;;4.40;4.00;;;28.50;49.50;;;;;;5013166;28;20664;-73
2023/06/23 10:46:43;;;;;;;4.40;4.00;;;28.40;51.00;;;;;;5013401;28;20193;-73
2023/06/23 10:49:11;;;;;;;4.63;4.10;;;28.60;52.40;;;;;;5005259;28;20213;-73
2023/06/23 10:51:39;;;;;;;4.23;3.87;;;28.80;52.60;;;;;;5025355;28;20229;-73
2023/06/23 10:54:09;;;;;;;4.10;3.80;;;29.00;52.90;;;;;;5019794;28;20589;-72
2023/06/23 10:56:37;;;;;;;4.40;3.80;;;29.10;51.10;;;;;;5002398;28;20577;-73
2023/06/23 10:59:22;;;;;;;4.10;3.70;;;29.00;50.90;;;;;;5005668;28;20568;-72
2023/06/23 11:02:10;;;;;;;4.50;4.10;;;29.10;50.60;;;;;;4994655;28;20616;-72
2023/06/23 11:04:56;;;;;;;4.77;3.80;;;29.00;49.30;;;;;;4987079;28;20234;-72
2023/06/23 11:07:23;;;;;;;4.30;3.90;;;29.00;50.80;;;;;;4995144;28;20211;-71
2023/06/23 11:10:04;;;;;;;4.57;4.00;;;29.10;50.80;;;;;;4993522;28;20287;-72
2023/06/23 11:12:33;;;;;;;4.10;3.80;;;29.10;49.40;;;;;;4993547;28;20231;-73
2023/06/23 11:15:04;;;;;;;5.33;4.83;;;29.10;49.50;;;;;;4993557;28;20253;-73
2023/06/23 11:17:40;;;;;;;6.73;4.60;;;29.20;48.50;;;;;;4995205;28;20208;-73
2023/06/23 11:20:11;;;;;;;4.90;4.40;;;29.20;47.60;;;;;;4993961;28;20306;-73
2023/06/23 11:22:40;;;;;;;3.97;3.67;;;29.20;48.90;;;;;;4993697;28;20223;-73
2023/06/23 11:25:09;;;;;;;3.53;3.23;;;29.30;48.90;;;;;;4992723;28;20214;-74
2023/06/23 11:27:36;;;;;;;3.33;3.10;;;29.50;48.70;;;;;;4982474;28;20194;-73
2023/06/23 11:30:18;;;;;;;3.93;3.20;;;29.60;47.50;;;;;;5010799;28;20199;-73
2023/06/23 11:32:46;;;;;;;4.10;3.40;;;29.60;48.10;;;;;;5012212;28;20591;-73
2023/06/23 11:35:13;;;;;;;3.47;3.17;;;29.70;49.10;;;;;;5012792;28;20207;-73
2023/06/23 11:37:39;;;;;;;3.70;3.40;;;29.90;49.10;;;;;;5012525;28;20206;-74
2023/06/23 11:40:10;;;;;;;3.53;3.23;;;30.10;48.20;;;;;;5012572;28;20237;-73
2023/06/23 11:42:44;;;;;;;5.43;3.53;;;30.20;49.40;;;;;;5008407;28;20657;-73
2023/06/23 11:45:11;;;;;;;3.53;3.23;;;30.10;46.90;;;;;;4996930;28;20283;-73
2023/06/23 11:47:38;;;;;;;4.40;3.97;;;30.10;49.10;;;;;;5010331;28;20257;-73
2023/06/23 11:50:10;;;;;;;4.07;3.53;;;30.10;47.20;;;;;;5012568;28;20603;-73
2023/06/23 11:52:37;;;;;;;3.20;2.97;;;29.90;46.00;;;;;;4993667;28;20203;-73
2023/06/23 11:55:05;;;;;;;3.63;3.00;;;29.90;48.40;;;;;;5012264;28;20243;-73
2023/06/23 11:57:37;;;;;;;3.17;2.83;;;30.10;48.20;;;;;;5012543;28;20207;-73
2023/06/23 12:00:05;;;;;;;3.47;3.17;;;30.20;46.10;;;;;;5011599;28;20567;-72
2023/06/23 12:02:32;;;;;;;5.20;2.90;;;30.20;46.50;;;;;;4996831;28;20204;-73
2023/06/23 12:04:59;;;;;;;2.97;2.67;;;30.20;46.20;;;;;;5027919;28;20211;-73
2023/06/23 12:07:30;;;;;;;3.40;3.10;;;30.30;45.10;;;;;;5031921;28;20218;-73
2023/06/23 12:09:57;;;;;;;2.90;2.70;;;30.40;45.40;;;;;;5019829;28;20222;-73
2023/06/23 12:12:24;;;;;;;3.40;3.10;;;30.40;45.90;;;;;;4992450;28;20207;-72
2023/06/23 12:14:59;;;;;;;3.30;3.00;;;30.40;45.50;;;;;;4991690;28;20330;-73
2023/06/23 12:17:26;;;;;;;4.07;3.10;;;30.50;43.90;;;;;;4992320;28;20210;-74
2023/06/23 12:19:54;;;;;;;3.63;3.00;;;30.60;46.70;;;;;;4992350;28;20641;-73
2023/06/23 12:22:20;;;;;;;3.50;3.20;;;30.60;44.20;;;;;;4992377;28;20263;-73
2023/06/23 12:24:48;;;;;;;3.53;3.23;;;30.70;46.20;;;;;;4993205;28;20214;-74
2023/06/23 12:27:15;;;;;;;3.50;3.20;;;30.80;44.70;;;;;;5008202;28;20231;-73
2023/06/23 12:29:42;;;;;;;4.33;3.27;;;30.90;46.10;;;;;;5007569;28;20242;-72
2023/06/23 12:32:10;;;;;;;3.43;2.93;;;31.10;44.00;;;;;;5007804;28;20559;-73
2023/06/23 12:34:44;;;;;;;3.50;3.10;;;31.20;44.40;;;;;;4991997;28;20566;-73
2023/06/23 12:37:14;;;;;;;3.10;2.73;;;31.20;44.30;;;;;;4991641;28;20235;-72
2023/06/23 12:39:40;;;;;;;3.17;2.87;;;31.30;45.20;;;;;;4992294;28;20239;-72
2023/06/23 12:42:08;;;;;;;3.20;2.77;;;31.50;45.30;;;;;;4993349;28;20204;-74
2023/06/23 12:44:40;;;;;;;3.87;3.00;;;31.60;45.40;;;;;;4992249;28;20660;-72
2023/06/23 12:47:07;;;;;;;3.53;2.83;;;31.70;44.20;;;;;;5010292;28;20257;-73
2023/06/23 12:49:41;;;;;;;4.50;3.23;;;31.70;44.70;;;;;;5027182;28;20276;-73
2023/06/23 12:52:10;;;;;;;3.27;2.77;;;31.70;43.80;;;;;;5031212;28;20206;-73
2023/06/23 12:54:40;;;;;;;2.87;2.67;;;31.80;44.30;;;;;;5030788;28;20582;-73
2023/06/23 12:57:09;;;;;;;3.00;2.70;;;31.80;44.30;;;;;;5030552;28;20226;-73
2023/06/23 12:59:36;;;;;;;4.17;2.73;;;31.90;43.60;;;;;;5030994;28;20232;-73